createdAt,value
2023-12-27T00:01:46.273Z,7.20
2023-12-27T00:04:13.330Z,7.20
2023-12-27T00:06:40.324Z,7.20
2023-12-27T00:09:08.271Z,7.20
2023-12-27T00:11:37.087Z,7.10
2023-12-27T00:14:04.296Z,7.20
2023-12-27T00:16:31.365Z,7.20
2023-12-27T00:18:58.515Z,7.20
2023-12-27T00:21:25.669Z,7.20
2023-12-27T00:23:52.619Z,7.10
2023-12-27T00:26:19.458Z,7.10
2023-12-27T00:28:46.468Z,7.10
2023-12-27T00:31:13.636Z,7.20
2023-12-27T00:33:40.581Z,7.10
2023-12-27T00:36:09.386Z,7.20
2023-12-27T00:38:37.258Z,7.10
2023-12-27T00:41:05.634Z,7.10
2023-12-27T00:43:32.369Z,7.10
2023-12-27T00:45:59.265Z,7.10
2023-12-27T00:48:26.435Z,7.10
2023-12-27T00:50:53.492Z,7.10
2023-12-27T00:53:20.614Z,7.10
2023-12-27T00:55:47.463Z,7.10
2023-12-27T00:58:14.328Z,7.10
2023-12-27T01:00:41.581Z,7.10
2023-12-27T01:03:09.430Z,7.10
2023-12-27T01:05:37.130Z,7.00
2023-12-27T01:08:04.411Z,7.00
2023-12-27T01:10:31.254Z,7.00
2023-12-27T01:12:58.123Z,7.00
2023-12-27T01:15:25.234Z,6.90
2023-12-27T01:17:52.302Z,7.00
2023-12-27T01:20:20.522Z,7.00
2023-12-27T01:22:48.846Z,7.00
2023-12-27T01:25:16.270Z,7.00
2023-12-27T01:27:45.909Z,7.00
2023-12-27T01:30:14.926Z,6.90
2023-12-27T01:32:41.888Z,6.90
2023-12-27T01:35:09.033Z,7.00
2023-12-27T01:37:35.842Z,7.00
2023-12-27T01:40:02.717Z,7.00
2023-12-27T01:42:29.644Z,7.00
2023-12-27T01:44:56.583Z,7.00
2023-12-27T01:47:23.420Z,7.00
2023-12-27T01:49:50.700Z,6.90
2023-12-27T01:52:17.750Z,6.90
2023-12-27T01:54:44.783Z,6.90
2023-12-27T01:57:11.883Z,6.90
2023-12-27T01:59:38.676Z,6.80
2023-12-27T02:02:05.639Z,6.80
2023-12-27T02:04:32.501Z,6.80
2023-12-27T02:06:59.486Z,6.80
2023-12-27T02:09:26.963Z,6.80
2023-12-27T02:11:53.708Z,6.80
2023-12-27T02:14:20.712Z,6.80
2023-12-27T02:16:47.616Z,6.80
2023-12-27T02:19:21.429Z,6.80
2023-12-27T02:21:52.086Z,6.80
2023-12-27T02:24:20.575Z,6.80
2023-12-27T02:26:47.580Z,6.80
2023-12-27T02:29:15.629Z,6.80
2023-12-27T02:31:42.558Z,6.90
2023-12-27T02:34:09.633Z,6.90
2023-12-27T02:36:38.697Z,6.90
2023-12-27T02:39:05.771Z,6.90
2023-12-27T02:41:32.641Z,7.00
2023-12-27T02:43:59.425Z,7.00
2023-12-27T02:46:26.298Z,7.00
2023-12-27T02:48:53.186Z,7.00
2023-12-27T02:51:20.185Z,7.00
2023-12-27T02:53:47.127Z,7.00
2023-12-27T02:56:13.886Z,6.90
2023-12-27T02:58:41.094Z,6.90
2023-12-27T03:01:08.892Z,7.00
2023-12-27T03:03:35.828Z,7.00
2023-12-27T03:06:02.606Z,7.00
2023-12-27T03:08:29.472Z,6.90
2023-12-27T03:10:57.095Z,6.90
2023-12-27T03:13:23.954Z,6.90
2023-12-27T03:15:50.738Z,6.90
2023-12-27T03:18:17.708Z,6.90
2023-12-27T03:20:44.581Z,6.90
2023-12-27T03:23:11.721Z,6.90
2023-12-27T03:25:38.492Z,6.90
2023-12-27T03:28:05.480Z,6.90
2023-12-27T03:30:33.240Z,6.90
2023-12-27T03:33:00.384Z,6.90
2023-12-27T03:35:27.203Z,6.90
2023-12-27T03:37:54.223Z,7.00
2023-12-27T03:40:20.974Z,6.90
2023-12-27T03:42:47.746Z,6.90
2023-12-27T03:45:14.808Z,6.90
2023-12-27T03:47:41.528Z,7.00
2023-12-27T03:50:08.756Z,7.00
2023-12-27T03:52:35.617Z,6.90
2023-12-27T03:55:02.439Z,6.90
2023-12-27T03:57:29.276Z,6.80
2023-12-27T03:59:56.159Z,6.80
2023-12-27T04:02:22.981Z,6.80
2023-12-27T04:04:49.744Z,6.80
2023-12-27T04:07:16.541Z,6.70
2023-12-27T04:09:43.368Z,6.60
2023-12-27T04:12:10.497Z,6.70
2023-12-27T04:14:37.278Z,6.60
2023-12-27T04:17:04.211Z,6.50
2023-12-27T04:19:31.102Z,6.60
2023-12-27T04:21:57.952Z,6.60
2023-12-27T04:24:24.759Z,6.50
2023-12-27T04:26:51.525Z,6.60
2023-12-27T04:29:18.317Z,6.50
2023-12-27T04:31:45.091Z,6.60
2023-12-27T04:34:12.706Z,6.50
2023-12-27T04:36:39.806Z,6.50
2023-12-27T04:39:08.060Z,6.50
2023-12-27T04:41:35.276Z,6.50
2023-12-27T04:44:02.269Z,6.40
2023-12-27T04:46:29.079Z,6.40
2023-12-27T04:48:56.264Z,6.40
2023-12-27T04:51:23.759Z,6.30
2023-12-27T04:53:51.177Z,6.40
2023-12-27T04:56:19.402Z,6.30
2023-12-27T04:58:46.626Z,6.10
2023-12-27T05:01:13.453Z,6.10
2023-12-27T05:03:40.320Z,6.00
2023-12-27T05:06:10.619Z,6.00
2023-12-27T05:08:44.079Z,6.00
2023-12-27T05:11:15.372Z,6.10
2023-12-27T05:13:42.845Z,6.10
2023-12-27T05:16:14.449Z,6.10
2023-12-27T05:18:43.118Z,6.10
2023-12-27T05:21:12.835Z,6.00
2023-12-27T05:23:39.841Z,5.90
2023-12-27T05:26:07.645Z,5.80
2023-12-27T05:28:34.901Z,5.80
2023-12-27T05:31:02.227Z,5.70
2023-12-27T05:33:29.831Z,5.70
2023-12-27T05:35:58.407Z,5.60
2023-12-27T05:38:25.570Z,5.60
2023-12-27T05:40:52.397Z,5.50
2023-12-27T05:43:19.385Z,5.50
2023-12-27T05:45:46.135Z,5.50
2023-12-27T05:48:13.461Z,5.50
2023-12-27T05:50:40.485Z,5.50
2023-12-27T05:53:07.324Z,5.50
2023-12-27T05:55:34.287Z,5.40
2023-12-27T05:58:01.144Z,5.40
2023-12-27T06:00:28.006Z,5.30
2023-12-27T06:02:54.872Z,5.20
2023-12-27T06:05:23.480Z,5.20
2023-12-27T06:07:50.469Z,5.10
2023-12-27T06:10:18.604Z,5.00
2023-12-27T06:12:45.430Z,4.90
2023-12-27T06:15:12.435Z,4.90
2023-12-27T06:37:18.565Z,4.80
2023-12-27T07:16:34.711Z,4.60
2023-12-27T07:19:01.609Z,5.50
2023-12-27T07:41:07.137Z,5.40
2023-12-27T07:43:34.116Z,5.00
2023-12-27T07:46:00.962Z,4.90
2023-12-27T08:37:37.460Z,4.90
2023-12-27T09:39:07.245Z,5.70
2023-12-27T10:01:23.720Z,7.20
2023-12-27T10:03:55.671Z,7.90
2023-12-27T10:06:33.837Z,7.90
2023-12-27T10:09:01.386Z,8.00
2023-12-27T11:00:59.942Z,8.10
2023-12-27T11:03:31.606Z,9.10
2023-12-27T11:18:24.637Z,9.10
2023-12-27T11:20:52.918Z,9.40
2023-12-27T11:23:20.810Z,9.40
2023-12-27T11:25:47.668Z,9.40
2023-12-27T11:28:14.800Z,9.40
2023-12-27T11:30:43.170Z,9.50
2023-12-27T11:33:10.397Z,9.60
2023-12-27T11:35:38.882Z,9.50
2023-12-27T11:38:19.543Z,9.60
2023-12-27T11:40:47.485Z,9.60
2023-12-27T11:43:25.348Z,9.60
2023-12-27T11:46:03.388Z,9.70
2023-12-27T11:48:36.694Z,9.80
2023-12-27T11:53:31.485Z,9.80
2023-12-27T11:56:02.910Z,10.40
2023-12-27T11:58:34.172Z,10.80
2023-12-27T12:01:28.223Z,11.10
2023-12-27T12:04:19.088Z,11.60
2023-12-27T12:06:55.165Z,12.10
2023-12-27T12:09:37.045Z,12.30
2023-12-27T12:12:25.352Z,12.70
2023-12-27T12:14:55.992Z,12.90
2023-12-27T12:17:24.823Z,13.00
2023-12-27T12:19:52.195Z,13.20
2023-12-27T12:22:19.404Z,13.10
2023-12-27T12:24:46.723Z,13.40
2023-12-27T12:27:22.163Z,14.00
2023-12-27T12:29:49.016Z,13.80
2023-12-27T12:32:16.698Z,13.00
2023-12-27T12:34:44.086Z,13.30
2023-12-27T12:37:11.578Z,14.00
2023-12-27T12:39:38.655Z,14.00
2023-12-27T12:42:05.826Z,14.70
2023-12-27T12:44:35.659Z,15.00
2023-12-27T12:47:03.931Z,16.00
2023-12-27T12:49:31.832Z,16.30
2023-12-27T12:52:07.926Z,16.10
2023-12-27T12:54:35.042Z,15.90
2023-12-27T12:57:02.410Z,15.70
2023-12-27T12:59:30.814Z,15.60
2023-12-27T13:01:57.718Z,15.90
2023-12-27T13:04:27.735Z,16.30
2023-12-27T13:07:05.583Z,15.90
2023-12-27T13:09:32.978Z,16.40
2023-12-27T13:12:00.045Z,17.00
2023-12-27T13:14:27.893Z,16.70
2023-12-27T13:16:55.150Z,17.00
2023-12-27T13:19:22.359Z,17.10
2023-12-27T13:21:52.349Z,17.00
2023-12-27T13:24:19.455Z,16.90
2023-12-27T13:26:46.402Z,15.90
2023-12-27T13:29:13.180Z,15.30
2023-12-27T13:31:40.515Z,14.70
2023-12-27T13:34:08.451Z,14.30
2023-12-27T13:36:35.526Z,13.90
2023-12-27T13:39:02.539Z,14.10
2023-12-27T13:41:29.277Z,13.70
2023-12-27T13:43:56.040Z,13.30
2023-12-27T13:46:22.831Z,13.20
2023-12-27T13:48:49.748Z,12.50
2023-12-27T13:51:17.255Z,12.50
2023-12-27T13:53:44.219Z,12.30
2023-12-27T13:56:10.960Z,12.50
2023-12-27T13:58:37.900Z,12.50
2023-12-27T14:01:06.010Z,12.30
2023-12-27T14:03:33.656Z,12.00
2023-12-27T14:06:00.920Z,11.90
2023-12-27T14:08:28.033Z,11.80
2023-12-27T14:10:56.023Z,11.80
2023-12-27T14:13:22.778Z,11.80
2023-12-27T14:15:49.786Z,11.40
2023-12-27T14:18:16.907Z,11.30
2023-12-27T14:20:44.083Z,11.00
2023-12-27T14:23:11.235Z,10.90
2023-12-27T14:25:38.202Z,10.90
2023-12-27T14:28:07.486Z,10.90
2023-12-27T14:30:35.434Z,10.70
2023-12-27T14:33:04.152Z,10.80
2023-12-27T14:35:31.172Z,10.60
2023-12-27T14:37:58.294Z,10.50
2023-12-27T14:40:26.788Z,10.40
2023-12-27T14:42:53.868Z,10.30
2023-12-27T14:45:21.018Z,10.20
2023-12-27T14:47:48.279Z,10.10
2023-12-27T14:50:15.217Z,10.00
2023-12-27T14:52:42.150Z,9.80
2023-12-27T14:55:12.126Z,9.80
2023-12-27T14:57:39.039Z,9.70
2023-12-27T15:00:07.031Z,9.70
2023-12-27T15:02:34.044Z,9.50
2023-12-27T15:05:00.957Z,9.40
2023-12-27T15:07:27.869Z,9.40
2023-12-27T15:09:55.266Z,9.30
2023-12-27T15:12:22.146Z,9.20
2023-12-27T15:14:48.925Z,9.20
2023-12-27T15:17:15.778Z,9.10
2023-12-27T15:19:42.799Z,9.00
2023-12-27T15:22:09.949Z,8.90
2023-12-27T15:24:37.078Z,8.90
2023-12-27T15:27:04.241Z,8.80
2023-12-27T15:29:31.834Z,8.90
2023-12-27T15:31:58.692Z,8.80
2023-12-27T15:34:25.917Z,8.70
2023-12-27T15:36:52.869Z,8.60
2023-12-27T15:39:20.520Z,8.70
2023-12-27T15:41:47.401Z,8.50
2023-12-27T15:44:14.163Z,8.60
2023-12-27T15:46:41.045Z,8.40
2023-12-27T15:49:07.999Z,8.30
2023-12-27T15:51:36.809Z,8.30
2023-12-27T15:54:05.808Z,8.30
2023-12-27T15:56:42.428Z,8.20
2023-12-27T15:59:09.195Z,8.10
2023-12-27T16:01:38.999Z,8.10
2023-12-27T16:04:08.623Z,8.10
2023-12-27T16:06:37.838Z,8.00
2023-12-27T16:09:08.457Z,8.00
2023-12-27T16:11:37.752Z,8.00
2023-12-27T16:14:04.719Z,7.80
2023-12-27T16:16:31.531Z,7.80
2023-12-27T16:18:58.543Z,7.80
2023-12-27T16:21:25.831Z,7.80
2023-12-27T16:23:53.036Z,7.80
2023-12-27T16:26:21.582Z,7.60
2023-12-27T16:28:48.919Z,7.60
2023-12-27T16:31:16.208Z,7.50
2023-12-27T16:33:43.403Z,7.40
2023-12-27T16:36:11.602Z,7.30
2023-12-27T16:38:41.190Z,7.30
2023-12-27T16:41:08.905Z,7.20
2023-12-27T16:43:41.167Z,7.10
2023-12-27T16:46:11.407Z,7.10
2023-12-27T16:48:42.675Z,7.00
2023-12-27T16:51:09.439Z,7.00
2023-12-27T16:53:36.150Z,6.90
2023-12-27T16:56:02.926Z,6.90
2023-12-27T16:58:29.665Z,6.80
2023-12-27T17:00:56.547Z,6.90
2023-12-27T17:03:23.538Z,6.80
2023-12-27T17:05:51.272Z,6.70
2023-12-27T17:08:18.171Z,6.70
2023-12-27T17:10:44.988Z,6.60
2023-12-27T17:13:11.775Z,6.50
2023-12-27T17:15:38.863Z,6.50
2023-12-27T17:18:06.339Z,6.50
2023-12-27T17:20:33.314Z,6.50
2023-12-27T17:23:00.140Z,6.40
2023-12-27T17:25:28.770Z,6.30
2023-12-27T17:27:57.185Z,6.20
2023-12-27T17:30:24.775Z,6.10
2023-12-27T17:32:51.727Z,6.20
2023-12-27T17:35:19.365Z,6.10
2023-12-27T17:37:46.804Z,7.00
2023-12-27T17:40:14.743Z,7.30
2023-12-27T17:42:41.781Z,7.60
2023-12-27T17:45:12.036Z,7.70
2023-12-27T17:47:40.855Z,7.60
2023-12-27T17:50:09.126Z,6.70
2023-12-27T17:52:36.344Z,6.40
2023-12-27T17:55:03.602Z,6.10
2023-12-27T17:57:37.121Z,5.80
2023-12-27T18:00:05.926Z,5.70
2023-12-27T18:02:34.241Z,5.60
2023-12-27T18:05:01.224Z,5.50
2023-12-27T18:07:28.691Z,5.50
2023-12-27T18:09:55.672Z,5.30
2023-12-27T18:12:22.509Z,5.20
2023-12-27T18:14:50.714Z,5.10
2023-12-27T18:17:17.599Z,5.00
2023-12-27T18:19:44.483Z,5.00
2023-12-27T18:22:12.282Z,4.90
2023-12-27T18:24:40.287Z,4.80
2023-12-27T18:27:07.739Z,4.80
2023-12-27T18:29:39.435Z,4.70
2023-12-27T18:32:09.718Z,4.70
2023-12-27T18:34:41.224Z,4.70
2023-12-27T18:37:08.501Z,4.70
2023-12-27T18:39:37.349Z,4.60
2023-12-27T18:42:04.520Z,4.60
2023-12-27T18:44:33.107Z,4.60
2023-12-27T18:47:00.158Z,4.50
2023-12-27T18:49:27.066Z,4.50
2023-12-27T18:51:54.071Z,4.40
2023-12-27T18:54:21.029Z,4.40
2023-12-27T18:56:48.163Z,4.30
2023-12-27T18:59:15.111Z,4.40
2023-12-27T19:01:44.356Z,4.40
2023-12-27T19:04:11.699Z,4.30
2023-12-27T19:06:38.783Z,4.30
2023-12-27T19:09:05.591Z,4.30
2023-12-27T19:11:32.512Z,4.20
2023-12-27T19:14:00.360Z,4.30
2023-12-27T19:16:27.897Z,4.20
2023-12-27T19:18:55.994Z,4.10
2023-12-27T19:21:23.282Z,4.10
2023-12-27T19:23:50.326Z,4.10
2023-12-27T19:26:18.956Z,4.00
2023-12-27T19:28:47.523Z,4.00
2023-12-27T19:31:15.045Z,3.90
2023-12-27T19:33:42.204Z,3.90
2023-12-27T19:36:10.206Z,3.90
2023-12-27T19:38:37.940Z,3.90
2023-12-27T19:41:08.263Z,3.90
2023-12-27T19:43:35.202Z,3.90
2023-12-27T19:46:02.432Z,3.90
2023-12-27T19:48:30.049Z,3.90
2023-12-27T19:50:57.557Z,3.80
2023-12-27T19:53:24.540Z,3.80
2023-12-27T19:55:52.079Z,3.70
2023-12-27T19:58:19.696Z,3.80
2023-12-27T20:00:48.084Z,3.90
2023-12-27T20:03:15.456Z,4.00
2023-12-27T20:05:43.521Z,4.00
2023-12-27T20:08:10.720Z,4.10
2023-12-27T20:10:37.788Z,4.00
2023-12-27T20:13:05.808Z,3.90
2023-12-27T20:18:04.909Z,4.00
2023-12-27T20:20:31.785Z,4.10
2023-12-27T20:22:59.025Z,4.00
2023-12-27T20:25:26.350Z,4.00
2023-12-27T20:27:53.101Z,4.00
2023-12-27T20:30:20.098Z,4.10
2023-12-27T20:32:46.976Z,4.30
2023-12-27T20:35:14.001Z,4.30
2023-12-27T20:37:40.797Z,4.40
2023-12-27T20:40:08.197Z,4.50
2023-12-27T20:42:35.019Z,4.30
2023-12-27T20:45:01.840Z,4.20
2023-12-27T20:47:28.743Z,4.10
2023-12-27T20:49:55.626Z,4.00
2023-12-27T20:52:22.493Z,3.90
2023-12-27T20:54:49.494Z,3.60
2023-12-27T20:57:16.419Z,3.60
2023-12-27T20:59:43.253Z,3.40
2023-12-27T21:02:10.081Z,3.30
2023-12-27T21:04:36.896Z,3.50
2023-12-27T21:07:03.872Z,3.50
2023-12-27T21:09:30.719Z,3.70
2023-12-27T21:11:57.601Z,3.70
2023-12-27T21:14:24.416Z,3.60
2023-12-27T21:16:51.215Z,3.60
2023-12-27T21:19:18.067Z,3.50
2023-12-27T21:21:46.045Z,3.50
2023-12-27T21:24:13.414Z,3.50
2023-12-27T21:26:40.422Z,3.50
2023-12-27T21:29:07.303Z,3.60
2023-12-27T21:31:34.654Z,3.70
2023-12-27T21:34:01.727Z,3.90
2023-12-27T21:36:30.113Z,4.00
2023-12-27T21:38:58.311Z,4.20
2023-12-27T21:41:29.305Z,4.20
2023-12-27T21:43:57.755Z,4.00
2023-12-27T21:46:26.239Z,3.90
2023-12-27T21:48:53.357Z,3.70
2023-12-27T21:51:22.417Z,3.40
2023-12-27T21:53:49.603Z,3.40
2023-12-27T21:56:25.246Z,3.30
2023-12-27T21:58:58.208Z,3.30
2023-12-27T22:01:25.431Z,3.20
2023-12-27T22:03:52.846Z,3.00
2023-12-27T22:06:19.970Z,3.10
2023-12-27T22:08:47.154Z,3.30
2023-12-27T22:11:15.046Z,3.40
2023-12-27T22:13:43.698Z,3.40
2023-12-27T22:16:16.700Z,3.40
2023-12-27T22:18:46.176Z,3.20
2023-12-27T22:21:17.810Z,3.30
2023-12-27T22:23:48.714Z,3.30
2023-12-27T22:26:16.170Z,3.50
2023-12-27T22:28:43.391Z,3.50
2023-12-27T22:31:17.981Z,3.60
2023-12-27T22:33:44.982Z,3.70
2023-12-27T22:36:11.939Z,4.10
2023-12-27T22:38:38.703Z,4.30
2023-12-27T22:41:05.566Z,4.40
2023-12-27T22:43:32.400Z,4.50
2023-12-27T22:45:59.291Z,4.50
2023-12-27T22:48:26.256Z,4.70
2023-12-27T22:50:53.188Z,4.70
2023-12-27T22:53:19.987Z,4.40
2023-12-27T22:55:46.861Z,4.30
2023-12-27T22:58:13.756Z,4.10
2023-12-27T23:00:40.664Z,4.00
2023-12-27T23:03:10.551Z,3.80
2023-12-27T23:05:37.704Z,3.60
2023-12-27T23:08:04.828Z,3.70
2023-12-27T23:10:31.604Z,3.70
2023-12-27T23:12:58.345Z,3.70
2023-12-27T23:15:25.287Z,3.60
2023-12-27T23:17:52.524Z,3.60
2023-12-27T23:20:19.425Z,3.70
2023-12-27T23:22:46.275Z,3.70
2023-12-27T23:25:13.355Z,3.70
2023-12-27T23:27:40.425Z,3.60
2023-12-27T23:30:07.913Z,3.70
2023-12-27T23:32:42.331Z,3.60
2023-12-27T23:35:15.123Z,3.80
2023-12-27T23:37:42.128Z,3.70
2023-12-27T23:40:09.745Z,3.80
2023-12-27T23:42:36.841Z,4.00
2023-12-27T23:45:04.337Z,4.00
2023-12-27T23:47:31.184Z,4.00
2023-12-27T23:49:58.069Z,3.90
2023-12-27T23:52:24.873Z,3.90
2023-12-27T23:54:51.744Z,4.00
2023-12-27T23:57:18.714Z,4.00
2023-12-27T23:59:45.603Z,4.10
